createdAt,value
2023-03-16T00:00:14.154Z,85.28
2023-03-16T00:02:47.538Z,85.15
2023-03-16T00:05:17.948Z,84.98
2023-03-16T00:07:48.282Z,84.03
2023-03-16T00:10:18.872Z,83.26
2023-03-16T00:12:49.222Z,82.92
2023-03-16T00:15:19.717Z,83.11
2023-03-16T00:17:52.817Z,83.65
2023-03-16T00:20:23.228Z,83.83
2023-03-16T00:22:53.462Z,84.06
2023-03-16T00:25:24.468Z,83.48
2023-03-16T00:27:54.892Z,82.76
2023-03-16T00:30:27.590Z,82.64
2023-03-16T00:33:02.228Z,82.50
2023-03-16T00:35:35.119Z,82.75
2023-03-16T00:38:09.514Z,82.70
2023-03-16T00:40:40.458Z,82.26
2023-03-16T00:43:10.953Z,81.68
2023-03-16T00:45:44.857Z,81.46
2023-03-16T00:48:18.577Z,81.08
2023-03-16T00:50:48.836Z,80.99
2023-03-16T00:53:19.084Z,80.97
2023-03-16T00:55:50.708Z,80.98
2023-03-16T00:58:21.017Z,81.17
2023-03-16T01:00:52.051Z,81.75
2023-03-16T01:03:25.193Z,81.87
2023-03-16T01:05:59.965Z,82.26
2023-03-16T01:08:30.854Z,82.94
2023-03-16T01:11:06.752Z,83.40
2023-03-16T01:13:37.528Z,83.34
2023-03-16T01:16:09.155Z,83.20
2023-03-16T01:18:42.301Z,83.38
2023-03-16T01:21:14.709Z,83.62
2023-03-16T01:23:45.829Z,83.32
2023-03-16T01:26:17.834Z,83.16
2023-03-16T01:28:50.183Z,82.72
2023-03-16T01:31:22.833Z,81.68
2023-03-16T01:33:55.797Z,81.35
2023-03-16T01:36:29.875Z,81.02
2023-03-16T01:39:05.243Z,81.04
2023-03-16T01:41:42.862Z,81.33
2023-03-16T01:44:17.142Z,81.02
2023-03-16T01:46:47.476Z,81.00
2023-03-16T01:49:25.872Z,81.15
2023-03-16T01:52:02.409Z,81.37
2023-03-16T01:54:38.924Z,81.84
2023-03-16T01:57:12.842Z,82.03
2023-03-16T01:59:49.872Z,82.60
2023-03-16T02:02:24.549Z,82.46
2023-03-16T02:05:05.038Z,82.61
2023-03-16T02:07:42.480Z,82.59
2023-03-16T02:10:16.011Z,82.80
2023-03-16T02:12:47.439Z,82.67
2023-03-16T02:15:19.149Z,82.35
2023-03-16T02:17:51.277Z,82.61
2023-03-16T02:20:37.747Z,82.29
2023-03-16T02:23:10.499Z,82.20
2023-03-16T02:25:47.064Z,81.97
2023-03-16T02:28:28.957Z,81.87
2023-03-16T02:31:02.257Z,81.43
2023-03-16T02:33:35.877Z,81.53
2023-03-16T02:36:08.092Z,81.65
2023-03-16T02:38:38.708Z,81.58
2023-03-16T02:44:14.735Z,81.91
2023-03-16T02:46:52.550Z,82.10
2023-03-16T02:49:28.679Z,81.97
2023-03-16T02:52:00.014Z,82.00
2023-03-16T02:54:31.058Z,82.23
2023-03-16T02:57:01.472Z,82.40
2023-03-16T02:59:33.732Z,82.33
2023-03-16T03:02:08.429Z,82.12
2023-03-16T03:04:40.220Z,82.23
2023-03-16T03:07:11.152Z,82.03
2023-03-16T03:09:58.372Z,82.22
2023-03-16T03:12:28.948Z,82.13
2023-03-16T03:14:59.757Z,81.45
2023-03-16T03:17:37.559Z,81.07
2023-03-16T03:20:15.636Z,81.24
2023-03-16T03:22:47.783Z,81.23
2023-03-16T03:25:20.447Z,81.18
2023-03-16T03:27:54.658Z,81.25
2023-03-16T03:30:29.646Z,81.32
2023-03-16T03:33:02.863Z,81.48
2023-03-16T03:35:33.456Z,81.75
2023-03-16T03:38:04.207Z,81.42
2023-03-16T03:40:34.759Z,81.36
2023-03-16T03:43:07.437Z,81.58
2023-03-16T03:45:42.294Z,81.44
2023-03-16T03:48:15.293Z,81.20
2023-03-16T03:50:45.575Z,81.04
2023-03-16T03:53:34.943Z,81.25
2023-03-16T03:56:18.111Z,81.17
2023-03-16T03:58:48.432Z,81.22
2023-03-16T04:01:26.358Z,81.22
2023-03-16T04:03:59.320Z,81.24
2023-03-16T04:06:30.013Z,81.40
2023-03-16T04:09:00.540Z,81.50
2023-03-16T04:11:31.568Z,81.41
2023-03-16T04:14:02.363Z,81.19
2023-03-16T04:16:34.196Z,81.45
2023-03-16T04:19:07.326Z,81.83
2023-03-16T04:21:37.778Z,82.09
2023-03-16T04:24:08.986Z,81.99
2023-03-16T04:26:39.975Z,81.99
2023-03-16T04:29:10.551Z,82.18
2023-03-16T04:31:43.988Z,82.65
2023-03-16T04:34:17.451Z,82.61
2023-03-16T04:36:48.949Z,82.56
2023-03-16T04:39:19.547Z,83.43
2023-03-16T04:41:51.491Z,83.93
2023-03-16T04:44:26.157Z,83.53
2023-03-16T04:46:57.006Z,83.05
2023-03-16T04:49:32.670Z,82.91
2023-03-16T04:52:03.138Z,82.89
2023-03-16T04:54:33.771Z,82.79
2023-03-16T04:57:05.987Z,83.07
2023-03-16T04:59:42.992Z,83.16
2023-03-16T05:02:25.788Z,83.65
2023-03-16T05:04:58.881Z,84.20
2023-03-16T05:07:29.273Z,84.45
2023-03-16T05:10:00.226Z,84.52
2023-03-16T05:12:30.802Z,84.14
2023-03-16T05:15:05.362Z,83.69
2023-03-16T05:17:46.773Z,83.46
2023-03-16T05:20:22.077Z,82.95
2023-03-16T05:22:56.223Z,82.33
2023-03-16T05:25:32.982Z,82.13
2023-03-16T05:28:08.276Z,81.87
2023-03-16T05:31:05.345Z,81.55
2023-03-16T05:33:42.324Z,81.71
2023-03-16T05:36:19.650Z,81.64
2023-03-16T05:38:55.322Z,81.15
2023-03-16T05:41:39.922Z,81.03
2023-03-16T05:44:24.755Z,80.90
2023-03-16T05:47:15.501Z,80.44
2023-03-16T05:49:50.187Z,79.92
2023-03-16T05:52:36.803Z,79.00
2023-03-16T05:55:17.298Z,78.20
2023-03-16T05:57:51.284Z,77.30
2023-03-16T06:00:25.878Z,76.42
2023-03-16T06:03:07.054Z,75.43
2023-03-16T06:05:39.743Z,74.40
2023-03-16T06:08:13.203Z,74.00
2023-03-16T06:10:46.322Z,73.14
2023-03-16T06:13:16.798Z,72.22
2023-03-16T06:15:47.352Z,71.20
2023-03-16T06:18:18.375Z,70.82
2023-03-16T06:20:50.049Z,70.10
2023-03-16T06:23:23.908Z,69.92
2023-03-16T06:25:55.526Z,69.61
2023-03-16T06:28:28.997Z,69.26
2023-03-16T06:31:01.112Z,68.95
2023-03-16T06:33:35.781Z,68.94
2023-03-16T06:36:07.409Z,68.62
2023-03-16T06:38:44.978Z,68.12
2023-03-16T06:41:38.214Z,67.92
2023-03-16T06:44:11.809Z,68.00
2023-03-16T06:46:49.154Z,67.82
2023-03-16T06:49:19.621Z,67.37
2023-03-16T06:51:50.157Z,66.65
2023-03-16T06:54:23.147Z,66.44
2023-03-16T06:56:53.825Z,65.47
2023-03-16T06:59:25.331Z,64.53
2023-03-16T07:01:55.733Z,63.58
2023-03-16T07:04:26.126Z,63.32
2023-03-16T07:06:57.077Z,64.00
2023-03-16T07:09:30.155Z,63.57
2023-03-16T07:12:00.645Z,63.43
2023-03-16T07:14:31.595Z,63.60
2023-03-16T07:17:02.623Z,63.53
2023-03-16T07:19:33.354Z,62.85
2023-03-16T07:22:05.709Z,60.98
2023-03-16T07:24:44.284Z,59.34
2023-03-16T07:27:15.201Z,58.09
2023-03-16T07:29:47.297Z,56.21
2023-03-16T07:32:17.938Z,53.92
2023-03-16T07:34:49.729Z,53.66
2023-03-16T07:37:25.262Z,51.96
2023-03-16T07:40:00.779Z,50.86
2023-03-16T07:42:31.381Z,48.61
2023-03-16T07:45:10.140Z,47.76
2023-03-16T07:47:40.781Z,45.14
2023-03-16T07:50:28.475Z,40.40
2023-03-16T07:52:59.619Z,39.28
2023-03-16T07:55:33.128Z,39.23
2023-03-16T07:58:05.099Z,36.54
2023-03-16T08:00:38.072Z,34.76
2023-03-16T08:03:08.790Z,32.54
2023-03-16T08:05:39.637Z,30.79
2023-03-16T08:08:16.095Z,31.13
2023-03-16T08:10:52.735Z,29.67
2023-03-16T08:13:27.300Z,28.81
2023-03-16T08:15:58.924Z,28.86
2023-03-16T08:18:38.903Z,27.74
2023-03-16T08:21:10.821Z,27.43
2023-03-16T08:23:41.170Z,26.24
2023-03-16T08:26:14.264Z,25.67
2023-03-16T08:28:47.729Z,23.68
2023-03-16T08:31:18.934Z,23.59
2023-03-16T08:33:56.118Z,23.56
2023-03-16T08:36:30.571Z,23.91
2023-03-16T08:39:06.869Z,23.63
2023-03-16T08:41:46.080Z,24.00
2023-03-16T08:44:33.181Z,23.81
2023-03-16T08:47:05.301Z,22.96
2023-03-16T08:49:38.172Z,23.14
2023-03-16T08:52:13.787Z,23.20
2023-03-16T08:54:59.860Z,23.27
2023-03-16T08:57:35.826Z,23.62
2023-03-16T09:00:13.027Z,23.70
2023-03-16T09:02:43.751Z,23.40
2023-03-16T09:05:16.010Z,22.71
2023-03-16T09:07:48.896Z,22.87
2023-03-16T09:10:20.040Z,22.48
2023-03-16T09:12:55.584Z,21.67
2023-03-16T09:15:25.991Z,21.77
2023-03-16T09:17:58.169Z,21.74
2023-03-16T09:20:30.123Z,21.38
2023-03-16T09:23:01.715Z,20.95
2023-03-16T09:25:32.575Z,21.77
2023-03-16T09:28:05.733Z,21.64
2023-03-16T09:30:36.341Z,22.02
2023-03-16T09:33:06.686Z,22.19
2023-03-16T09:35:37.218Z,22.42
2023-03-16T09:38:07.755Z,22.65
2023-03-16T09:40:40.082Z,22.59
2023-03-16T09:43:33.024Z,23.18
2023-03-16T09:46:12.372Z,23.97
2023-03-16T09:48:43.933Z,23.31
2023-03-16T09:51:24.357Z,23.07
2023-03-16T09:54:02.494Z,23.60
2023-03-16T09:56:39.030Z,23.50
2023-03-16T09:59:19.125Z,23.70
2023-03-16T10:02:24.258Z,23.11
2023-03-16T10:05:06.475Z,22.70
2023-03-16T10:07:48.267Z,23.47
2023-03-16T10:10:42.482Z,23.32
2023-03-16T10:13:27.360Z,24.09
2023-03-16T10:16:04.993Z,23.83
2023-03-16T10:18:42.939Z,23.34
2023-03-16T10:21:19.776Z,23.97
2023-03-16T10:23:51.693Z,24.14
2023-03-16T10:26:29.750Z,24.55
2023-03-16T10:29:01.308Z,23.95
2023-03-16T10:31:38.497Z,23.36
2023-03-16T10:34:10.842Z,23.04
2023-03-16T10:36:45.293Z,23.01
2023-03-16T10:39:17.929Z,22.85
2023-03-16T10:41:51.477Z,22.02
2023-03-16T10:44:28.740Z,22.28
2023-03-16T10:47:08.412Z,21.98
2023-03-16T10:49:44.494Z,22.76
2023-03-16T10:52:22.543Z,22.41
2023-03-16T10:54:57.497Z,21.80
2023-03-16T10:57:31.308Z,22.15
2023-03-16T11:00:16.106Z,21.74
2023-03-16T11:02:49.694Z,21.77
2023-03-16T11:05:32.710Z,21.84
2023-03-16T11:08:12.342Z,21.65
2023-03-16T11:10:55.268Z,20.97
2023-03-16T11:13:28.189Z,20.74
2023-03-16T11:16:03.312Z,20.38
2023-03-16T11:18:43.632Z,19.93
2023-03-16T11:21:19.332Z,20.09
2023-03-16T11:23:56.238Z,19.95
2023-03-16T11:26:33.703Z,19.33
2023-03-16T11:29:13.448Z,18.69
2023-03-16T11:31:50.705Z,17.59
2023-03-16T11:34:31.454Z,17.04
2023-03-16T11:37:15.979Z,16.69
2023-03-16T11:39:56.509Z,16.48
2023-03-16T11:42:36.628Z,16.31
2023-03-16T11:45:21.414Z,16.26
2023-03-16T11:48:28.326Z,15.88
2023-03-16T11:51:11.646Z,16.04
2023-03-16T11:54:05.030Z,15.10
2023-03-16T11:56:41.431Z,15.29
2023-03-16T12:00:01.443Z,14.75
2023-03-16T12:03:25.008Z,15.00
2023-03-16T12:06:17.069Z,15.13
2023-03-16T12:09:27.334Z,14.59
2023-03-16T12:12:05.666Z,14.78
2023-03-16T12:14:44.282Z,14.31
2023-03-16T12:17:21.221Z,14.22
2023-03-16T12:19:56.813Z,13.99
2023-03-16T12:22:37.470Z,14.93
2023-03-16T12:25:18.209Z,15.54
2023-03-16T12:27:54.633Z,15.69
2023-03-16T12:30:39.553Z,14.95
2023-03-16T12:33:19.429Z,15.24
2023-03-16T12:35:52.736Z,15.05
2023-03-16T12:38:41.603Z,15.49
2023-03-16T12:41:25.821Z,15.07
2023-03-16T12:44:12.969Z,15.07
2023-03-16T12:46:56.359Z,15.37
2023-03-16T12:49:28.850Z,15.32
2023-03-16T12:52:04.479Z,15.11
2023-03-16T12:54:38.120Z,15.68
2023-03-16T12:57:11.600Z,15.41
2023-03-16T12:59:47.298Z,15.13
2023-03-16T13:02:21.305Z,15.55
2023-03-16T13:04:59.241Z,15.58
2023-03-16T13:07:33.527Z,15.51
2023-03-16T13:10:14.108Z,15.09
2023-03-16T13:12:46.312Z,14.86
2023-03-16T13:15:31.716Z,14.89
2023-03-16T13:18:25.203Z,15.32
2023-03-16T13:21:03.028Z,15.44
2023-03-16T13:23:58.229Z,15.27
2023-03-16T13:26:43.443Z,15.50
2023-03-16T13:29:25.699Z,16.19
2023-03-16T13:31:58.327Z,16.38
2023-03-16T13:34:33.883Z,16.18
2023-03-16T13:37:04.410Z,15.21
2023-03-16T13:39:35.837Z,15.11
2023-03-16T13:42:21.322Z,14.82
2023-03-16T13:44:52.238Z,15.69
2023-03-16T13:47:22.920Z,15.42
2023-03-16T13:49:58.392Z,15.79
2023-03-16T13:52:32.400Z,15.55
2023-03-16T13:55:05.160Z,15.60
2023-03-16T13:57:41.211Z,14.97
2023-03-16T14:00:21.250Z,14.62
2023-03-16T14:02:57.334Z,15.21
2023-03-16T14:05:31.370Z,15.61
2023-03-16T14:08:02.555Z,15.99
2023-03-16T14:10:37.250Z,15.91
2023-03-16T14:13:27.644Z,15.82
2023-03-16T14:16:00.308Z,16.08
2023-03-16T14:18:37.801Z,16.52
2023-03-16T14:21:12.176Z,16.63
2023-03-16T14:23:48.253Z,16.22
2023-03-16T14:26:22.226Z,16.97
2023-03-16T14:29:12.673Z,16.03
2023-03-16T14:31:43.256Z,16.44
2023-03-16T14:34:30.238Z,16.78
2023-03-16T14:37:12.304Z,17.42
2023-03-16T14:39:43.281Z,17.13
2023-03-16T14:42:23.631Z,17.22
2023-03-16T14:44:56.643Z,17.87
2023-03-16T14:47:32.147Z,17.86
2023-03-16T14:50:10.872Z,17.91
2023-03-16T14:52:41.839Z,18.17
2023-03-16T14:55:19.523Z,18.20
2023-03-16T14:57:51.369Z,18.16
2023-03-16T15:00:26.598Z,18.60
2023-03-16T15:03:08.369Z,17.99
2023-03-16T15:05:42.270Z,18.24
2023-03-16T15:08:20.166Z,18.46
2023-03-16T15:10:50.906Z,18.32
2023-03-16T15:13:35.000Z,17.84
2023-03-16T15:16:08.954Z,18.34
2023-03-16T15:18:41.950Z,18.47
2023-03-16T15:21:15.570Z,18.63
2023-03-16T15:23:47.176Z,18.29
2023-03-16T15:26:24.943Z,18.41
2023-03-16T15:28:55.870Z,18.63
2023-03-16T15:31:29.167Z,18.50
2023-03-16T15:33:59.909Z,18.43
2023-03-16T15:36:30.432Z,18.93
2023-03-16T15:39:02.176Z,19.15
2023-03-16T15:41:45.248Z,19.49
2023-03-16T15:44:17.977Z,19.42
2023-03-16T15:46:51.513Z,19.19
2023-03-16T15:49:22.204Z,19.05
2023-03-16T15:51:52.683Z,19.48
2023-03-16T15:54:23.339Z,20.84
2023-03-16T15:56:54.893Z,21.63
2023-03-16T15:59:27.273Z,22.19
2023-03-16T16:02:01.169Z,22.80
2023-03-16T16:04:31.785Z,24.08
2023-03-16T16:07:03.047Z,25.70
2023-03-16T16:09:37.787Z,26.89
2023-03-16T16:12:09.479Z,27.84
2023-03-16T16:14:40.578Z,27.93
2023-03-16T16:17:36.453Z,29.24
2023-03-16T16:20:23.563Z,29.63
2023-03-16T16:22:55.216Z,30.35
2023-03-16T16:25:28.562Z,31.09
2023-03-16T16:27:59.352Z,31.81
2023-03-16T16:30:33.947Z,32.17
2023-03-16T16:33:07.500Z,33.19
2023-03-16T16:35:38.646Z,33.70
2023-03-16T16:38:10.109Z,34.95
2023-03-16T16:40:45.891Z,35.46
2023-03-16T16:43:30.385Z,35.89
2023-03-16T16:46:00.950Z,36.22
2023-03-16T16:48:41.121Z,36.68
2023-03-16T16:51:20.389Z,37.63
2023-03-16T16:53:51.181Z,37.54
2023-03-16T16:56:29.499Z,37.64
2023-03-16T16:59:03.957Z,38.12
2023-03-16T17:01:36.382Z,38.51
2023-03-16T17:04:16.655Z,38.78
2023-03-16T17:06:48.114Z,39.27
2023-03-16T17:09:18.406Z,39.62
2023-03-16T17:11:49.114Z,40.04
2023-03-16T17:14:21.975Z,40.25
2023-03-16T17:16:53.543Z,40.58
2023-03-16T17:19:28.771Z,40.94
2023-03-16T17:22:01.544Z,41.10
2023-03-16T17:24:32.141Z,41.41
2023-03-16T17:27:04.675Z,41.65
2023-03-16T17:29:36.986Z,41.96
2023-03-16T17:32:22.522Z,42.23
2023-03-16T17:34:55.506Z,42.65
2023-03-16T17:37:26.051Z,42.75
2023-03-16T17:39:58.164Z,42.92
2023-03-16T17:42:31.126Z,42.97
2023-03-16T17:45:02.077Z,43.05
2023-03-16T17:47:39.658Z,43.20
2023-03-16T17:50:25.170Z,43.06
2023-03-16T17:52:56.278Z,42.99
2023-03-16T17:55:27.260Z,43.45
2023-03-16T17:57:59.305Z,43.57
2023-03-16T18:00:34.314Z,43.88
2023-03-16T18:03:07.159Z,43.88
2023-03-16T18:05:40.137Z,43.71
2023-03-16T18:08:20.576Z,43.58
2023-03-16T18:10:56.003Z,43.84
2023-03-16T18:13:29.714Z,43.50
2023-03-16T18:16:00.904Z,43.87
2023-03-16T18:18:35.169Z,43.68
2023-03-16T18:21:08.985Z,44.07
2023-03-16T18:23:39.807Z,44.36
2023-03-16T18:26:11.562Z,44.60
2023-03-16T18:28:41.963Z,45.08
2023-03-16T18:31:23.961Z,44.73
2023-03-16T18:33:57.702Z,44.70
2023-03-16T18:36:35.041Z,44.85
2023-03-16T18:39:11.629Z,44.94
2023-03-16T18:41:42.133Z,44.68
2023-03-16T18:44:21.584Z,45.27
2023-03-16T18:46:53.156Z,45.14
2023-03-16T18:49:28.166Z,45.42
2023-03-16T18:52:01.317Z,45.69
2023-03-16T18:54:35.676Z,45.53
2023-03-16T18:57:06.620Z,45.51
2023-03-16T18:59:37.258Z,46.24
2023-03-16T19:02:08.741Z,45.99
2023-03-16T19:04:39.995Z,46.04
2023-03-16T19:07:27.549Z,45.47
2023-03-16T19:09:58.117Z,45.49
2023-03-16T19:12:28.491Z,45.69
2023-03-16T19:14:58.834Z,45.77
2023-03-16T19:17:29.184Z,46.11
2023-03-16T19:19:59.803Z,45.89
2023-03-16T19:22:32.879Z,46.30
2023-03-16T19:25:03.543Z,46.94
2023-03-16T19:27:39.748Z,46.66
2023-03-16T19:30:23.245Z,46.52
2023-03-16T19:32:54.028Z,46.60
2023-03-16T19:35:36.291Z,46.59
2023-03-16T19:38:18.247Z,46.67
2023-03-16T19:40:50.973Z,46.66
2023-03-16T19:43:23.603Z,46.49
2023-03-16T19:45:55.083Z,46.21
2023-03-16T19:48:34.273Z,46.40
2023-03-16T19:51:06.249Z,46.06
2023-03-16T19:53:39.266Z,45.95
2023-03-16T19:56:15.484Z,45.78
2023-03-16T19:58:48.883Z,45.57
2023-03-16T20:01:23.504Z,45.20
2023-03-16T20:03:54.620Z,45.19
2023-03-16T20:06:27.254Z,44.89
2023-03-16T20:09:00.141Z,45.12
2023-03-16T20:11:32.692Z,44.76
2023-03-16T20:14:04.813Z,44.55
2023-03-16T20:16:37.870Z,44.44
2023-03-16T20:19:16.416Z,44.43
2023-03-16T20:21:46.720Z,44.56
2023-03-16T20:24:24.569Z,44.44
2023-03-16T20:26:56.804Z,44.47
2023-03-16T20:29:32.305Z,44.14
2023-03-16T20:32:06.997Z,43.84
2023-03-16T20:34:37.559Z,43.89
2023-03-16T20:37:24.619Z,43.58
2023-03-16T20:39:59.952Z,43.85
2023-03-16T20:42:34.699Z,43.73
2023-03-16T20:45:05.319Z,43.30
2023-03-16T20:47:35.828Z,43.79
2023-03-16T20:50:06.388Z,43.75
2023-03-16T20:52:37.067Z,43.31
2023-03-16T20:55:11.921Z,43.28
2023-03-16T20:57:43.605Z,43.12
2023-03-16T21:00:31.608Z,42.87
2023-03-16T21:03:02.701Z,42.85
2023-03-16T21:05:33.299Z,42.67
2023-03-16T21:08:03.764Z,42.36
2023-03-16T21:10:37.208Z,42.46
2023-03-16T21:13:08.281Z,42.33
2023-03-16T21:15:39.218Z,41.82
2023-03-16T21:18:13.686Z,41.81
2023-03-16T21:20:44.104Z,41.53
2023-03-16T21:23:17.999Z,41.05
2023-03-16T21:25:57.062Z,41.15
2023-03-16T21:28:29.229Z,41.10
2023-03-16T21:31:01.319Z,40.91
2023-03-16T21:33:35.058Z,40.53
2023-03-16T21:36:08.333Z,40.50
2023-03-16T21:38:38.718Z,40.56
2023-03-16T21:41:11.806Z,40.43
2023-03-16T21:43:43.067Z,40.19
2023-03-16T21:46:18.457Z,40.49
2023-03-16T21:48:52.269Z,41.31
2023-03-16T21:51:25.471Z,40.96
2023-03-16T21:53:56.317Z,41.10
2023-03-16T21:56:29.503Z,40.46
2023-03-16T21:58:59.942Z,40.48
2023-03-16T22:01:34.429Z,39.88
2023-03-16T22:04:08.852Z,39.68
2023-03-16T22:06:39.646Z,39.67
2023-03-16T22:09:20.126Z,39.70
2023-03-16T22:11:56.666Z,39.51
2023-03-16T22:14:27.344Z,39.40
2023-03-16T22:16:58.363Z,39.05
2023-03-16T22:19:29.992Z,39.26
2023-03-16T22:22:03.659Z,39.29
2023-03-16T22:24:36.009Z,39.32
2023-03-16T22:27:17.162Z,39.05
2023-03-16T22:29:51.286Z,38.86
2023-03-16T22:32:24.990Z,38.73
2023-03-16T22:34:59.042Z,38.78
2023-03-16T22:37:31.705Z,38.85
2023-03-16T22:40:03.412Z,38.76
2023-03-16T22:42:40.245Z,38.60
2023-03-16T22:45:21.033Z,38.57
2023-03-16T22:47:51.398Z,38.67
2023-03-16T22:50:24.408Z,38.57
2023-03-16T22:52:59.856Z,38.71
2023-03-16T22:55:34.467Z,38.63
2023-03-16T22:58:15.208Z,38.36
2023-03-16T23:00:45.627Z,38.41
2023-03-16T23:03:21.477Z,38.58
2023-03-16T23:05:52.271Z,38.73
2023-03-16T23:08:26.785Z,38.64
2023-03-16T23:10:57.260Z,38.45
2023-03-16T23:13:30.223Z,38.56
2023-03-16T23:16:03.058Z,38.80
2023-03-16T23:18:33.537Z,39.08
2023-03-16T23:21:04.035Z,38.83
2023-03-16T23:23:34.418Z,38.49
2023-03-16T23:26:04.738Z,38.61
2023-03-16T23:28:37.853Z,38.37
2023-03-16T23:31:08.994Z,38.52
2023-03-16T23:33:39.090Z,38.17
2023-03-16T23:36:17.026Z,38.50
2023-03-16T23:38:47.858Z,38.67
2023-03-16T23:41:21.691Z,38.61
2023-03-16T23:43:56.145Z,38.43
2023-03-16T23:46:28.257Z,38.57
2023-03-16T23:49:01.881Z,38.52
2023-03-16T23:51:34.611Z,38.93
2023-03-16T23:54:04.984Z,38.71
2023-03-16T23:56:35.256Z,38.72
2023-03-16T23:59:08.328Z,38.65
